Relevés horaires Bierset (Belgique)


Relevés horaires à Bierset - Lundi 12 Juin 2023
Heure UTC1 Température [°C] Vent [km/h] Hum. [%] Pres.4 [hPa] Visi. [Km] Nébu. [octa] Préc.5 [mm] Cond.
2m. Res. Ros. Dir.2 Vit. Moy. Raf.3
23:00 21.3 21.3 7.3 ESE 5.6 5.6 9.3 40 1013.2(0.2/3h) 30 2/8 -- --
22:00 22.3 22.3 7.6 E 5.6 7.4 16.7 39 1013.2(0.7/3h) 30 2/8 -- --
21:00 23.6 23.6 7.9 E 7.4 9.3 20.4 37 1013.2(0.7/3h) 30 3/8 -- --
20:00 24.6 24.6 7.7 E 5.6 9.3 16.7 34 1012.8(0.3/3h) 30 1/8 -- --
19:00 26.0 26.0 7.6 E 7.4 9.3 14.8 31 1012.2(-0.5/3h) 30 1/8 -- --
18:00 27.1 27.1 7.7 E 9.3 9.3 18.5 29 1012.2(-0.6/3h) 30 1/8 0/12h
--
17:00 27.0 27.0 8.4 E 7.4 9.3 14.8 31 1012.3(-0.8/3h) 30 1/8 -- --
16:00 27.6 27.6 8.1 ENE 5.6 9.3 18.5 29 1012.6(-0.9/3h) 30 1/8 -- --
15:00 28.3 28.3 9.1 NNE 7.4 9.3 16.7 30 1012.7(-1.1/3h) 30 3/8 -- --
14:00 29.4 29.4 8.8 NNE 5.6 9.3 13.0 28 1013(-0.8/3h) 30 3/8 -- --
13:00 28.3 28.3 10.1 NE 7.4 7.4 13.0 32 1013.5(-0.9/3h) 30 3/8 -- --
12:00 26.5 26.5 9.2 N 5.6 7.4 13.0 34 1013.9(-0.7/3h) 30 3/8 0/6h
--
11:00 27.5 27.5 9.8 ENE 3.7 3.7 7.4 33 1014(-0.8/3h) 30 1/8 -- --
10:00 26.8 26.8 10.5 NNO 1.9 3.7 7.4 36 1014.4(-0.5/3h) 30 1/8 -- --
09:00 25.9 25.9 9.5 NNO 3.7 5.6 13.0 36 1014.6(0.1/3h) 30 1/8 -- --
08:00 25.2 25.2 8.8 NNO 1.9 1.9 11.1 35 1015(0.2/3h) 30 1/8 -- --
07:00 22.9 22.9 9.3 ESE 1.9 5.6 13.0 42 1015.2(0.5/3h) 30 1/8 -- --
06:00 21.5 21.5 7.8 ENE 3.7 7.4 22.2 41 1015.1(0.5/3h) 30 1/8 0/12h
--
05:00 19.0 19.0 7.2 NE 1.9 3.7 7.4 46 1015.2(0.4/3h) 30 1/8 -- --
04:00 17.9 17.9 5.8 NE 1.9 7.4 7.4 45 1015.1(-0.1/3h) 30 0/8 -- --
03:00 20.0 20.0 5.6 SE 5.6 7.4 22.2 39 1014.8(-0.4/3h) 30 1/8 -- --
02:00 20.5 20.5 5.7 SE 5.6 5.6 11.1 38 1014.7(-0.3/3h) 30 1/8 -- --
01:00 20.6 20.6 6.9 SE 5.6 5.6 9.3 41 1015(0.1/3h) 30 1/8 -- --
00:00 21.4 21.4 8.1 ESE 5.6 9.3 24.1 42 1015.1(0.4/3h) 30 1/8 0/6h
0/24h
--

1 Coordinated Universal Time. Actuellement il est 22:00 locale et 20:00 UTC.

2 Le vent souffle depuis la direction indiquée vers la direction oposée.

3 Les rafales max. sont disponible 40 min après l'heure du relevé.

4 Pour les stations d'altitude (plus de 600m) le géopotentiel du niveau le plus proche de la pression obligatoire est indiqué.

5 Les stations disposant d'un diffuseur peuvent indiquer "trace". Cela signifie que des précipitations ont touchés le sol mais que la quantité est inférieure à 0.1 mm.

Récapitulatif de la journée
Température [°C] Vent [km/h] Ensoleillement4 [h] Precipitations totale5 [mm] Pression [Hpa]
Min1 Max.2 Moy.3 Max. Min Max.
16.7 29.5 7 24.1 0 h 0 min 0 1012.2 1015.2

1 Température minimale relevée entre 18:00 UTC la veille et 18:00 UTC le jour donné.

2 Température maximale relevée entre 06:00 UTC le jour donné et 06:00 UTC le lendemain.

3 Vent moyen de la journée basé sur les relevés horaires.

4 Ensoleillement en heures relevé entre 06:00 UTC la veille et 06:00 UTC le jour donné.

5 Précipitations totales tombées entre 06:00 UTC la jour donné et 06:00 UTC le lendemain.

Graphiques horaires